Rockwall, TX

12:11 PM CST on December 16, 2017 (GMT -0600)
Rockwall

Weather History for KF46 - August, 2013

Change the Weather History Date:

Friday, August 2, 2013

  Actual Average (KDFW) Record (KDFW)
Temperature  
Mean Temperature 90 °F -  
Max Temperature 101 °F 95 °F 110 °F (2011)
Min Temperature 78 °F 74 °F 62 °F (1965)
Cooling Degree Days 24    
Growing Degree Days 40 (Base 50)    
Moisture  
Dew Point 69 °F    
Average Humidity 54    
Maximum Humidity 77    
Minimum Humidity 32    
Precipitation  
Precipitation 0.00 in - - ()
Sea Level Pressure  
Sea Level Pressure 29.91 in    
Wind  
Wind Speed 8 mph (SSE)    
Max Wind Speed 15 mph    
Max Gust Speed 22 mph    
Visibility 10 miles    
Events      
Averages and records for this station are not official NWS values.
T = Trace of Precipitation, MM = Missing Value Source: NWS Daily Summary

Daily Weather History Graph

Daily Weather History Graph

Search for Another Location

Airport or City:

Trip Planner

Search our weather history database for the weather conditions in past years. The results will help you decide how hot, cold, wet, or windy it might be!

Date:

Astronomy

Aug. 02, 2013 Rise Set
Actual Time 6:40 AM CDT 8:23 PM CDT
Civil Twilight 6:13 AM CDT 8:50 PM CDT
Nautical Twilight 5:40 AM CDT 9:22 PM CDT
Astronomical Twilight 5:06 AM CDT 9:56 PM CDT
Moon 3:04 AM CDT (8/2) 5:19 PM CDT (8/2)
Length of Visible Light 14h 36m
Length of Day
13h 43m
Waning Crescent, 15% of the Moon is Illuminated
Aug 2
Waning Crescent
Aug 6
New
Aug 14
First Quarter
Aug 20
Full
Aug 28
Last Quarter

Hourly Weather History & Observations

Time (CDT) Temp. Heat Index Dew Point Humidity Pressure Visibility Wind Dir Wind Speed Gust Speed Precip Events Conditions
12:15 AM 81.7 °F 85.6 °F 70.7 °F 69% 29.93 in 10.0 mi ESE 6.9 mph - N/A   Clear
12:35 AM 81.5 °F 85.5 °F 70.7 °F 70% 29.93 in 10.0 mi ESE 8.1 mph - N/A   Clear
12:55 AM 81.0 °F 84.7 °F 70.7 °F 71% 29.94 in 10.0 mi ESE 8.1 mph - N/A   Clear
1:15 AM 81.0 °F 84.6 °F 70.5 °F 70% 29.95 in 10.0 mi ESE 5.8 mph - N/A   Clear
1:35 AM 80.6 °F 84.1 °F 70.3 °F 71% 29.94 in 10.0 mi ESE 3.5 mph - N/A   Clear
1:55 AM 80.6 °F 84.1 °F 70.3 °F 71% 29.94 in 10.0 mi Calm Calm - N/A   Clear
2:15 AM 80.1 °F 83.2 °F 70.0 °F 71% 29.93 in 10.0 mi ESE 4.6 mph - N/A   Clear
2:35 AM 80.6 °F 83.9 °F 69.8 °F 70% 29.93 in 10.0 mi ESE 4.6 mph - N/A   Scattered Clouds
2:55 AM 80.4 °F 83.6 °F 69.8 °F 70% 29.92 in 10.0 mi East 4.6 mph - N/A   Clear
3:15 AM 79.7 °F - 69.8 °F 72% 29.92 in 10.0 mi ESE 5.8 mph - N/A   Clear
3:35 AM 79.5 °F - 69.8 °F 72% 29.92 in 10.0 mi ESE 3.5 mph - N/A   Clear
3:55 AM 79.2 °F - 69.8 °F 73% 29.92 in 10.0 mi ESE 5.8 mph - N/A   Clear
4:15 AM 79.2 °F - 69.8 °F 73% 29.92 in 10.0 mi ESE 5.8 mph - N/A   Clear
4:35 AM 78.8 °F - 69.8 °F 74% 29.92 in 10.0 mi SE 3.5 mph - N/A   Clear
4:55 AM 78.8 °F - 69.8 °F 74% 29.92 in 10.0 mi SE 5.8 mph - N/A   Clear
5:15 AM 79.2 °F - 70.2 °F 74% 29.92 in 10.0 mi SE 4.6 mph - N/A   Clear
5:35 AM 79.0 °F - 70.3 °F 75% 29.92 in 10.0 mi SE 5.8 mph - N/A   Clear
5:55 AM 79.2 °F - 70.7 °F 75% 29.92 in 10.0 mi SE 5.8 mph - N/A   Clear
6:15 AM 79.0 °F - 70.9 °F 76% 29.92 in 10.0 mi SSE 6.9 mph - N/A   Clear
6:35 AM 78.8 °F - 70.9 °F 77% 29.92 in 10.0 mi SSE 6.9 mph - N/A   Clear
6:55 AM 78.8 °F - 70.9 °F 77% 29.92 in 10.0 mi SSE 8.1 mph - N/A   Clear
7:35 AM 79.3 °F - 71.2 °F 76% 29.92 in 10.0 mi South 6.9 mph - N/A   Clear
7:55 AM 80.1 °F 83.7 °F 71.6 °F 75% 29.93 in 10.0 mi SSE 8.1 mph - N/A   Clear
8:15 AM 81.0 °F 85.1 °F 71.6 °F 73% 29.93 in 10.0 mi SSE 8.1 mph - N/A   Clear
8:35 AM 82.6 °F 87.6 °F 71.8 °F 70% 29.93 in 10.0 mi South 10.4 mph - N/A   Clear
8:55 AM 83.8 °F 88.9 °F 71.4 °F 66% 29.93 in 10.0 mi South 8.1 mph - N/A   Clear
9:15 AM 86.0 °F 91.5 °F 71.2 °F 61% 29.94 in 10.0 mi South 12.7 mph - N/A   Clear
9:35 AM 87.3 °F 92.8 °F 71.1 °F 58% 29.95 in 10.0 mi South 10.4 mph - N/A   Clear
9:55 AM 88.7 °F 94.8 °F 71.4 °F 56% 29.94 in 10.0 mi South 12.7 mph 17.3 mph N/A   Clear
10:15 AM 89.6 °F 95.7 °F 70.7 °F 54% 29.94 in 10.0 mi SSW 10.4 mph 18.4 mph N/A   Clear
10:35 AM 91.6 °F 98.8 °F 71.4 °F 52% 29.94 in 10.0 mi South 10.4 mph - N/A   Clear
10:55 AM 91.8 °F 98.6 °F 71.2 °F 51% 29.95 in 10.0 mi South 10.4 mph 19.6 mph N/A   Clear
11:15 AM 93.0 °F 99.5 °F 70.7 °F 48% 29.95 in 10.0 mi South 11.5 mph 16.1 mph N/A   Clear
11:35 AM 93.4 °F 99.7 °F 70.7 °F 47% 29.95 in 10.0 mi SSW 10.4 mph 19.6 mph N/A   Clear
11:55 AM 95.4 °F 102.7 °F 70.9 °F 45% 29.96 in 10.0 mi SSW 13.8 mph 17.3 mph N/A   Clear
12:15 PM 95.5 °F 102.4 °F 70.7 °F 44% 29.95 in 10.0 mi SSW 10.4 mph - N/A   Clear
12:35 PM 96.4 °F 103.7 °F 70.7 °F 43% 29.95 in 10.0 mi SSW 12.7 mph 16.1 mph N/A   Clear
12:55 PM 96.8 °F 103.8 °F 70.2 °F 42% 29.94 in 10.0 mi SSW 11.5 mph 17.3 mph N/A   Clear
1:15 PM 98.2 °F 105.4 °F 70.3 °F 40% 29.93 in 10.0 mi South 15.0 mph 18.4 mph N/A   Clear
1:35 PM 98.2 °F 104.7 °F 69.4 °F 39% 29.92 in 10.0 mi SSW 11.5 mph 18.4 mph N/A   Clear
1:55 PM 99.1 °F 106.6 °F 70.0 °F 39% 29.92 in 10.0 mi SSW 15.0 mph 18.4 mph N/A   Clear
2:15 PM 99.0 °F 105.5 °F 69.3 °F 38% 29.91 in 10.0 mi SW 15.0 mph 19.6 mph N/A   Clear
2:35 PM 99.9 °F 106.7 °F 69.3 °F 37% 29.90 in 10.0 mi South 11.5 mph 18.4 mph N/A   Scattered Clouds
2:55 PM 100.0 °F 107.0 °F 69.1 °F 37% 29.89 in 10.0 mi South 8.1 mph 17.3 mph N/A   Scattered Clouds
3:15 PM 100.0 °F 106.3 °F 68.5 °F 36% 29.89 in 10.0 mi SSE 6.9 mph 18.4 mph N/A   Scattered Clouds
3:35 PM 100.8 °F 107.0 °F 68.5 °F 35% 29.88 in 10.0 mi SSE 9.2 mph 17.3 mph N/A   Scattered Clouds
3:55 PM 100.4 °F 106.3 °F 68.0 °F 35% 29.88 in 10.0 mi South 13.8 mph 21.9 mph N/A   Scattered Clouds
4:15 PM 100.9 °F 106.0 °F 66.9 °F 33% 29.87 in 10.0 mi South 11.5 mph 16.1 mph N/A   Scattered Clouds
4:35 PM 101.3 °F 105.9 °F 66.4 °F 32% 29.87 in 10.0 mi SSE 5.8 mph 9.2 mph N/A   Scattered Clouds
4:55 PM 99.9 °F 104.6 °F 66.9 °F 34% 29.87 in 10.0 mi SSE 10.4 mph - N/A   Scattered Clouds
5:15 PM 99.9 °F 104.6 °F 66.7 °F 34% 29.87 in 10.0 mi SSW 11.5 mph 17.3 mph N/A   Scattered Clouds
5:35 PM 100.4 °F 104.9 °F 66.2 °F 33% 29.87 in 10.0 mi SSE 9.2 mph 18.4 mph N/A   Clear
5:55 PM 100.0 °F 104.9 °F 66.7 °F 34% 29.86 in 10.0 mi SSE 9.2 mph - N/A   Clear
6:15 PM 99.7 °F 104.2 °F 66.4 °F 34% 29.86 in 10.0 mi South 11.5 mph 16.1 mph N/A   Clear
6:35 PM 99.0 °F 102.9 °F 65.8 °F 34% 29.87 in 10.0 mi South 6.9 mph - N/A   Clear
6:55 PM 99.0 °F 102.9 °F 66.0 °F 34% 29.86 in 10.0 mi South 9.2 mph - N/A   Clear
7:15 PM 98.4 °F 101.9 °F 65.5 °F 34% 29.87 in 10.0 mi South 10.4 mph - N/A   Scattered Clouds
7:35 PM 97.0 °F 99.9 °F 65.3 °F 35% 29.87 in 10.0 mi SSE 8.1 mph - N/A   Clear
7:55 PM 95.9 °F 99.0 °F 65.7 °F 37% 29.87 in 10.0 mi SSE 5.8 mph - N/A   Clear
8:15 PM 94.1 °F 96.9 °F 65.7 °F 39% 29.87 in 10.0 mi SSE 5.8 mph - N/A   Clear
8:35 PM 93.2 °F 95.8 °F 65.3 °F 40% 29.87 in 10.0 mi SE 5.8 mph - N/A   Clear
8:55 PM 91.4 °F 93.6 °F 65.7 °F 42% 29.88 in 10.0 mi ESE 5.8 mph - N/A   Clear
9:15 PM 90.0 °F 93.2 °F 67.5 °F 47% 29.89 in 10.0 mi ESE 5.8 mph - N/A   Clear
9:35 PM 89.4 °F 93.1 °F 68.0 °F 49% 29.89 in 10.0 mi SE 8.1 mph - N/A   Clear
9:55 PM 88.7 °F 92.6 °F 68.5 °F 51% 29.90 in 10.0 mi ESE 6.9 mph - N/A   Clear
10:15 PM 88.3 °F 92.8 °F 69.3 °F 53% 29.91 in 10.0 mi ESE 6.9 mph - N/A   Clear
10:35 PM 87.8 °F 92.6 °F 69.8 °F 55% 29.91 in 10.0 mi SE 5.8 mph - N/A   Clear
10:55 PM 87.1 °F 92.0 °F 70.2 °F 57% 29.91 in 10.0 mi SE 6.9 mph - N/A   Clear
11:15 PM 86.9 °F 91.7 °F 70.2 °F 57% 29.92 in 10.0 mi SE 6.9 mph - N/A   Clear
11:35 PM 87.1 °F 91.6 °F 69.8 °F 56% 29.92 in 10.0 mi SE 8.1 mph - N/A   Clear
11:55 PM 86.9 °F 91.7 °F 69.8 °F 57% 29.92 in 10.0 mi SE 8.1 mph - N/A   Clear